createdAt,value
2023-04-21T00:00:10.012Z,66.90
2023-04-21T00:02:40.077Z,66.90
2023-04-21T00:05:12.664Z,66.90
2023-04-21T00:07:41.562Z,66.90
2023-04-21T00:10:10.848Z,66.90
2023-04-21T00:12:39.300Z,66.90
2023-04-21T00:15:08.958Z,66.90
2023-04-21T00:17:37.197Z,66.90
2023-04-21T00:20:07.131Z,67.00
2023-04-21T00:22:36.775Z,66.90
2023-04-21T00:25:05.430Z,66.90
2023-04-21T00:27:33.663Z,67.00
2023-04-21T00:30:01.889Z,67.00
2023-04-21T00:32:30.094Z,66.90
2023-04-21T00:34:58.277Z,66.90
2023-04-21T00:37:26.556Z,67.00
2023-04-21T00:39:56.211Z,66.90
2023-04-21T00:42:24.424Z,67.00
2023-04-21T00:44:52.636Z,67.00
2023-04-21T00:47:20.998Z,67.00
2023-04-21T00:49:49.602Z,66.90
2023-04-21T00:52:19.242Z,66.90
2023-04-21T00:54:48.123Z,66.90
2023-04-21T00:57:18.094Z,66.90
2023-04-21T00:59:46.243Z,66.90
2023-04-21T01:02:16.548Z,67.00
2023-04-21T01:04:45.796Z,66.90
2023-04-21T01:07:14.236Z,67.00
2023-04-21T01:09:42.379Z,66.90
2023-04-21T01:12:11.783Z,66.90
2023-04-21T01:14:42.355Z,66.90
2023-04-21T01:17:10.650Z,66.90
2023-04-21T01:19:41.419Z,66.90
2023-04-21T01:22:12.338Z,66.90
2023-04-21T01:24:41.568Z,66.90
2023-04-21T01:27:13.811Z,66.90
2023-04-21T01:29:43.717Z,67.00
2023-04-21T01:32:16.045Z,66.90
2023-04-21T01:34:45.452Z,66.90
2023-04-21T01:37:17.755Z,67.60
2023-04-21T01:39:48.014Z,67.00
2023-04-21T01:42:16.310Z,67.00
2023-04-21T01:44:44.448Z,67.00
2023-04-21T01:47:12.734Z,66.90
2023-04-21T01:49:40.876Z,66.90
2023-04-21T01:52:09.360Z,67.00
2023-04-21T01:54:39.023Z,67.00
2023-04-21T01:57:07.520Z,67.00
2023-04-21T01:59:35.811Z,67.00
2023-04-21T02:02:04.094Z,66.90
2023-04-21T02:04:32.527Z,66.90
2023-04-21T02:07:01.034Z,67.00
2023-04-21T02:09:29.189Z,66.90
2023-04-21T02:11:58.785Z,67.00
2023-04-21T02:14:27.332Z,67.00
2023-04-21T02:16:56.152Z,66.90
2023-04-21T02:19:24.561Z,66.90
2023-04-21T02:21:52.861Z,66.90
2023-04-21T02:24:21.007Z,66.90
2023-04-21T02:26:49.313Z,66.90
2023-04-21T02:29:19.148Z,67.00
2023-04-21T02:31:58.834Z,66.90
2023-04-21T02:34:29.362Z,67.00
2023-04-21T02:36:57.751Z,66.90
2023-04-21T02:39:25.929Z,66.90
2023-04-21T02:41:54.257Z,66.90
2023-04-21T02:44:23.889Z,66.90
2023-04-21T02:46:52.060Z,66.90
2023-04-21T02:49:20.477Z,66.90
2023-04-21T02:51:48.802Z,66.90
2023-04-21T02:54:16.892Z,66.90
2023-04-21T02:56:45.028Z,66.90
2023-04-21T02:59:16.452Z,66.90
2023-04-21T03:01:47.974Z,66.90
2023-04-21T03:04:16.681Z,66.90
2023-04-21T03:06:44.984Z,66.90
2023-04-21T03:09:13.170Z,66.90
2023-04-21T03:11:41.411Z,66.90
2023-04-21T03:14:09.546Z,66.90
2023-04-21T03:16:37.824Z,66.90
2023-04-21T03:19:07.440Z,66.90
2023-04-21T03:21:39.104Z,66.90
2023-04-21T03:24:08.401Z,66.90
2023-04-21T03:26:36.599Z,66.90
2023-04-21T03:29:04.845Z,67.00
2023-04-21T03:31:33.066Z,67.00
2023-04-21T03:34:01.235Z,67.00
2023-04-21T03:36:31.228Z,67.10
2023-04-21T03:39:12.609Z,67.10
2023-04-21T03:41:47.255Z,67.10
2023-04-21T03:44:15.427Z,67.10
2023-04-21T03:46:43.691Z,67.10
2023-04-21T03:49:11.895Z,67.20
2023-04-21T03:51:41.536Z,67.10
2023-04-21T03:54:09.868Z,67.20
2023-04-21T03:56:38.206Z,67.10
2023-04-21T03:59:06.509Z,67.10
2023-04-21T04:01:35.812Z,67.20
2023-04-21T04:04:04.318Z,67.20
2023-04-21T04:06:33.300Z,67.20
2023-04-21T04:09:04.687Z,67.20
2023-04-21T04:11:33.135Z,67.20
2023-04-21T04:14:01.539Z,67.20
2023-04-21T04:16:30.011Z,67.20
2023-04-21T04:18:58.273Z,67.20
2023-04-21T04:21:27.698Z,67.20
2023-04-21T04:23:55.984Z,67.20
2023-04-21T04:26:25.951Z,67.20
2023-04-21T04:28:56.643Z,67.20
2023-04-21T04:31:25.846Z,67.20
2023-04-21T04:33:55.119Z,67.20
2023-04-21T04:36:24.173Z,67.20
2023-04-21T04:38:52.534Z,67.20
2023-04-21T04:41:21.115Z,67.20
2023-04-21T04:43:51.201Z,67.10
2023-04-21T04:46:20.546Z,67.20
2023-04-21T04:48:49.317Z,67.20
2023-04-21T04:51:17.576Z,67.20
2023-04-21T04:53:45.841Z,67.10
2023-04-21T04:56:14.026Z,67.10
2023-04-21T04:58:42.265Z,67.80
2023-04-21T05:01:15.987Z,67.10
2023-04-21T05:03:45.343Z,67.10
2023-04-21T05:06:14.134Z,67.10
2023-04-21T05:08:42.491Z,67.10
2023-04-21T05:11:10.659Z,67.10
2023-04-21T05:13:40.161Z,67.10
2023-04-21T05:16:10.167Z,67.10
2023-04-21T05:18:40.004Z,67.10
2023-04-21T05:21:08.474Z,67.10
2023-04-21T05:23:36.722Z,67.10
2023-04-21T05:26:05.252Z,67.10
2023-04-21T05:28:33.610Z,67.10
2023-04-21T05:31:01.793Z,67.10
2023-04-21T05:33:31.960Z,67.00
2023-04-21T05:36:01.717Z,67.00
2023-04-21T05:38:29.919Z,67.10
2023-04-21T05:40:58.180Z,67.00
2023-04-21T05:43:26.481Z,67.10
2023-04-21T05:45:54.726Z,67.00
2023-04-21T05:48:23.585Z,67.00
2023-04-21T05:50:51.953Z,67.00
2023-04-21T05:53:23.515Z,67.00
2023-04-21T05:55:51.845Z,67.00
2023-04-21T05:58:20.175Z,67.00
2023-04-21T06:00:49.252Z,67.00
2023-04-21T06:03:17.702Z,67.00
2023-04-21T06:05:46.159Z,67.00
2023-04-21T06:08:14.685Z,67.00
2023-04-21T06:10:44.580Z,67.00
2023-04-21T06:13:12.800Z,67.00
2023-04-21T06:15:41.001Z,67.00
2023-04-21T06:18:09.315Z,67.00
2023-04-21T06:20:37.490Z,67.00
2023-04-21T06:23:05.642Z,67.00
2023-04-21T06:25:34.031Z,67.00
2023-04-21T06:28:03.549Z,67.00
2023-04-21T06:30:31.761Z,66.90
2023-04-21T06:32:59.925Z,66.90
2023-04-21T06:35:28.234Z,66.90
2023-04-21T06:37:56.470Z,66.90
2023-04-21T06:40:24.973Z,66.90
2023-04-21T06:42:53.145Z,66.90
2023-04-21T06:45:23.253Z,66.90
2023-04-21T06:47:51.514Z,67.10
2023-04-21T06:52:59.849Z,67.10
2023-04-21T06:55:28.191Z,67.10
2023-04-21T06:57:56.534Z,67.10
2023-04-21T07:00:26.241Z,67.10
2023-04-21T07:02:54.511Z,67.20
2023-04-21T07:05:22.851Z,67.10
2023-04-21T07:07:51.104Z,67.20
2023-04-21T07:10:20.431Z,67.20
2023-04-21T07:12:48.727Z,67.10
2023-04-21T07:15:17.342Z,67.10
2023-04-21T07:17:46.951Z,67.10
2023-04-21T07:20:15.321Z,67.20
2023-04-21T07:22:43.548Z,67.20
2023-04-21T07:25:13.407Z,67.20
2023-04-21T07:27:41.732Z,67.20
2023-04-21T07:30:10.895Z,67.20
2023-04-21T07:32:39.270Z,67.20
2023-04-21T07:35:09.671Z,67.30
2023-04-21T07:37:38.087Z,67.20
2023-04-21T07:40:07.426Z,67.10
2023-04-21T07:42:35.676Z,67.20
2023-04-21T07:45:05.353Z,67.20
2023-04-21T07:47:34.463Z,67.20
2023-04-21T07:50:02.829Z,67.10
2023-04-21T07:52:32.601Z,67.20
2023-04-21T07:55:00.840Z,67.20
2023-04-21T07:57:29.101Z,67.20
2023-04-21T07:59:57.396Z,67.20
2023-04-21T08:02:26.001Z,67.20
2023-04-21T08:04:54.544Z,67.30
2023-04-21T08:07:22.846Z,67.30
2023-04-21T08:09:52.620Z,67.20
2023-04-21T08:12:20.827Z,67.20
2023-04-21T08:14:49.386Z,67.30
2023-04-21T08:17:17.675Z,67.30
2023-04-21T08:19:45.901Z,67.30
2023-04-21T08:22:14.142Z,67.30
2023-04-21T08:24:42.460Z,67.30
2023-04-21T08:27:12.165Z,67.40
2023-04-21T08:29:40.585Z,67.40
2023-04-21T08:32:08.937Z,67.40
2023-04-21T08:34:37.404Z,67.30
2023-04-21T08:37:05.928Z,67.30
2023-04-21T08:39:34.259Z,67.40
2023-04-21T08:42:03.909Z,67.40
2023-04-21T08:44:33.990Z,67.30
2023-04-21T08:47:04.820Z,67.40
2023-04-21T08:49:34.246Z,67.30
2023-04-21T08:52:02.386Z,67.30
2023-04-21T08:54:31.038Z,67.40
2023-04-21T08:57:11.855Z,67.40
2023-04-21T08:59:44.236Z,67.40
2023-04-21T09:02:15.175Z,67.40
2023-04-21T09:04:43.974Z,68.10
2023-04-21T09:07:13.013Z,67.50
2023-04-21T09:09:54.159Z,67.40
2023-04-21T09:12:22.703Z,67.30
2023-04-21T09:14:52.484Z,67.20
2023-04-21T09:17:23.649Z,67.30
2023-04-21T09:19:52.044Z,67.30
2023-04-21T09:22:20.704Z,67.50
2023-04-21T09:24:49.707Z,67.50
2023-04-21T09:27:18.233Z,67.30
2023-04-21T09:29:49.647Z,67.30
2023-04-21T09:32:22.137Z,67.40
2023-04-21T09:34:51.089Z,67.40
2023-04-21T09:37:24.297Z,67.50
2023-04-21T09:40:04.250Z,67.50
2023-04-21T09:42:37.848Z,67.40
2023-04-21T09:45:29.022Z,67.50
2023-04-21T09:48:01.983Z,67.50
2023-04-21T09:53:07.190Z,67.50
2023-04-21T09:55:36.452Z,67.50
2023-04-21T09:58:07.185Z,67.50
2023-04-21T10:00:39.374Z,67.50
2023-04-21T10:03:12.223Z,67.50
2023-04-21T10:05:42.885Z,67.60
2023-04-21T10:08:12.739Z,67.60
2023-04-21T10:10:41.553Z,67.60
2023-04-21T10:13:15.950Z,67.60
2023-04-21T10:15:44.210Z,67.60
2023-04-21T10:18:19.997Z,67.50
2023-04-21T10:20:55.962Z,67.60
2023-04-21T10:23:31.551Z,67.60
2023-04-21T10:26:08.223Z,67.70
2023-04-21T10:28:43.945Z,67.60
2023-04-21T10:31:23.655Z,67.60
2023-04-21T10:34:19.326Z,67.50
2023-04-21T10:37:18.260Z,67.50
2023-04-21T10:39:53.663Z,67.60
2023-04-21T10:42:37.038Z,67.50
2023-04-21T10:45:13.638Z,67.60
2023-04-21T10:47:49.560Z,67.60
2023-04-21T10:50:25.816Z,67.60
2023-04-21T10:52:59.416Z,67.60
2023-04-21T10:55:29.696Z,67.60
2023-04-21T10:57:59.301Z,67.50
2023-04-21T11:00:27.733Z,67.50
2023-04-21T11:03:01.210Z,67.60
2023-04-21T11:05:34.725Z,67.70
2023-04-21T11:08:11.457Z,67.70
2023-04-21T11:11:04.216Z,67.60
2023-04-21T11:13:35.053Z,67.60
2023-04-21T11:16:06.147Z,67.60
2023-04-21T11:18:35.165Z,67.60
2023-04-21T11:21:11.033Z,67.60
2023-04-21T11:23:42.550Z,67.60
2023-04-21T11:26:11.041Z,67.60
2023-04-21T11:28:44.941Z,67.60
2023-04-21T11:31:13.424Z,67.50
2023-04-21T11:33:41.884Z,67.50
2023-04-21T11:36:11.610Z,67.40
2023-04-21T11:38:41.314Z,67.40
2023-04-21T11:41:10.904Z,67.50
2023-04-21T11:43:39.967Z,67.60
2023-04-21T11:46:17.901Z,67.60
2023-04-21T11:48:46.960Z,67.50
2023-04-21T11:51:22.209Z,67.40
2023-04-21T11:53:51.015Z,67.50
2023-04-21T11:56:21.710Z,67.60
2023-04-21T11:58:52.783Z,67.60
2023-04-21T12:01:21.570Z,67.50
2023-04-21T12:03:54.448Z,67.60
2023-04-21T12:06:26.078Z,67.60
2023-04-21T12:08:58.955Z,67.60
2023-04-21T12:11:29.188Z,67.60
2023-04-21T12:13:59.053Z,67.50
2023-04-21T12:16:28.479Z,67.40
2023-04-21T12:18:58.010Z,67.40
2023-04-21T12:21:30.384Z,67.40
2023-04-21T12:23:58.877Z,67.30
2023-04-21T12:26:27.076Z,67.40
2023-04-21T12:28:55.698Z,67.40
2023-04-21T12:31:24.054Z,67.40
2023-04-21T12:33:52.374Z,67.40
2023-04-21T12:36:20.642Z,67.40
2023-04-21T12:38:50.162Z,67.40
2023-04-21T12:41:18.394Z,67.20
2023-04-21T12:43:46.715Z,67.40
2023-04-21T12:46:14.980Z,67.40
2023-04-21T12:48:43.394Z,67.40
2023-04-21T12:51:11.759Z,67.40
2023-04-21T12:53:40.030Z,67.50
2023-04-21T12:56:09.812Z,67.40
2023-04-21T12:58:38.055Z,67.40
2023-04-21T13:01:07.386Z,67.50
2023-04-21T13:03:36.004Z,67.50
2023-04-21T13:06:04.457Z,67.30
2023-04-21T13:08:32.852Z,67.20
2023-04-21T13:11:01.185Z,67.10
2023-04-21T13:13:30.813Z,67.10
2023-04-21T13:15:59.146Z,67.10
2023-04-21T13:18:27.618Z,67.20
2023-04-21T13:20:55.857Z,67.20
2023-04-21T13:23:24.140Z,67.20
2023-04-21T13:25:52.963Z,67.20
2023-04-21T13:28:21.683Z,67.20
2023-04-21T13:30:52.524Z,67.10
2023-04-21T13:33:21.776Z,67.10
2023-04-21T13:35:50.807Z,67.00
2023-04-21T13:38:19.220Z,66.90
2023-04-21T13:40:49.081Z,66.80
2023-04-21T13:43:17.445Z,66.90
2023-04-21T13:45:46.268Z,66.90
2023-04-21T13:48:16.264Z,66.90
2023-04-21T13:50:44.448Z,67.00
2023-04-21T13:53:14.100Z,67.20
2023-04-21T13:55:42.768Z,67.10
2023-04-21T13:58:11.821Z,67.70
2023-04-21T14:00:40.193Z,67.00
2023-04-21T14:03:08.774Z,66.90
2023-04-21T14:05:38.964Z,66.90
2023-04-21T14:08:07.509Z,66.80
2023-04-21T14:10:35.830Z,66.80
2023-04-21T14:13:04.969Z,66.90
2023-04-21T14:15:33.599Z,67.00
2023-04-21T14:18:01.941Z,66.90
2023-04-21T14:20:30.435Z,67.00
2023-04-21T14:23:00.068Z,67.10
2023-04-21T14:25:28.793Z,67.10
2023-04-21T14:27:57.127Z,66.90
2023-04-21T14:30:25.478Z,66.90
2023-04-21T14:32:53.791Z,67.10
2023-04-21T14:35:22.186Z,67.10
2023-04-21T14:37:51.307Z,66.90
2023-04-21T14:40:22.380Z,67.00
2023-04-21T14:42:50.584Z,66.80
2023-04-21T14:45:18.937Z,66.70
2023-04-21T14:47:47.239Z,66.70
2023-04-21T14:50:15.476Z,66.70
2023-04-21T14:52:43.855Z,66.70
2023-04-21T14:55:12.127Z,66.70
2023-04-21T14:57:41.758Z,66.70
2023-04-21T15:00:11.652Z,66.70
2023-04-21T15:02:40.795Z,66.60
2023-04-21T15:05:10.014Z,66.60
2023-04-21T15:07:40.481Z,66.60
2023-04-21T15:10:11.115Z,66.60
2023-04-21T15:12:41.138Z,66.80
2023-04-21T15:15:12.046Z,66.60
2023-04-21T15:17:40.402Z,66.60
2023-04-21T15:20:10.383Z,66.70
2023-04-21T15:22:38.863Z,66.70
2023-04-21T15:25:07.694Z,66.70
2023-04-21T15:27:36.785Z,66.60
2023-04-21T15:30:05.756Z,66.60
2023-04-21T15:32:35.446Z,66.60
2023-04-21T15:35:03.761Z,66.70
2023-04-21T15:37:32.015Z,66.60
2023-04-21T15:40:00.383Z,66.60
2023-04-21T15:42:28.795Z,66.60
2023-04-21T15:44:57.419Z,66.60
2023-04-21T15:47:25.647Z,66.60
2023-04-21T15:49:55.382Z,66.60
2023-04-21T15:52:23.717Z,66.60
2023-04-21T15:54:52.215Z,66.60
2023-04-21T15:57:20.371Z,66.60
2023-04-21T15:59:49.020Z,66.60
2023-04-21T16:02:17.378Z,66.60
2023-04-21T16:04:46.196Z,66.60
2023-04-21T16:07:16.302Z,66.60
2023-04-21T16:09:44.607Z,66.60
2023-04-21T16:12:13.029Z,66.60
2023-04-21T16:14:54.311Z,66.60
2023-04-21T16:17:26.530Z,66.60
2023-04-21T16:19:55.276Z,66.50
2023-04-21T16:22:25.062Z,66.50
2023-04-21T16:24:54.189Z,66.50
2023-04-21T16:27:22.548Z,66.50
2023-04-21T16:29:50.808Z,66.50
2023-04-21T16:32:19.153Z,66.50
2023-04-21T16:34:47.514Z,66.50
2023-04-21T16:37:15.973Z,66.50
2023-04-21T16:39:46.490Z,66.60
2023-04-21T16:42:14.914Z,66.60
2023-04-21T16:44:43.173Z,66.60
2023-04-21T16:47:11.493Z,66.60
2023-04-21T16:49:39.974Z,66.60
2023-04-21T16:52:08.187Z,66.60
2023-04-21T16:54:36.578Z,66.60
2023-04-21T16:57:06.782Z,66.60
2023-04-21T16:59:35.161Z,66.60
2023-04-21T17:02:03.595Z,66.60
2023-04-21T17:04:31.953Z,66.60
2023-04-21T17:07:01.161Z,66.60
2023-04-21T17:09:29.534Z,66.60
2023-04-21T17:11:57.812Z,66.60
2023-04-21T17:14:27.506Z,66.50
2023-04-21T17:16:55.985Z,66.50
2023-04-21T17:19:25.064Z,66.50
2023-04-21T17:21:53.258Z,66.50
2023-04-21T17:24:21.505Z,66.50
2023-04-21T17:26:49.774Z,66.50
2023-04-21T17:29:18.070Z,66.60
2023-04-21T17:31:47.825Z,66.60
2023-04-21T17:34:16.098Z,66.50
2023-04-21T17:36:44.770Z,66.60
2023-04-21T17:39:14.159Z,66.60
2023-04-21T17:41:42.931Z,66.60
2023-04-21T17:44:11.034Z,66.60
2023-04-21T17:46:39.617Z,66.60
2023-04-21T17:49:09.279Z,66.60
2023-04-21T17:51:37.626Z,66.60
2023-04-21T17:54:06.015Z,66.60
2023-04-21T17:56:34.341Z,66.60
2023-04-21T17:59:02.944Z,66.70
2023-04-21T18:01:31.339Z,66.70
2023-04-21T18:04:01.381Z,66.60
2023-04-21T18:06:31.927Z,66.60
2023-04-21T18:09:00.772Z,66.60
2023-04-21T18:11:29.505Z,66.70
2023-04-21T18:13:57.612Z,66.70
2023-04-21T18:16:26.402Z,66.70
2023-04-21T18:18:54.887Z,66.70
2023-04-21T18:21:23.203Z,67.40
2023-04-21T18:23:52.820Z,66.80
2023-04-21T18:26:21.176Z,66.80
2023-04-21T18:28:49.414Z,66.70
2023-04-21T18:31:17.689Z,66.80
2023-04-21T18:33:45.972Z,66.80
2023-04-21T18:36:14.407Z,66.80
2023-04-21T18:38:42.608Z,66.80
2023-04-21T18:41:12.302Z,66.80
2023-04-21T18:43:40.525Z,66.80
2023-04-21T18:46:08.834Z,66.90
2023-04-21T18:48:37.057Z,66.90
2023-04-21T18:51:05.428Z,66.80
2023-04-21T18:53:33.684Z,66.90
2023-04-21T18:56:01.790Z,66.90
2023-04-21T18:58:31.251Z,66.90
2023-04-21T19:00:59.551Z,66.90
2023-04-21T19:03:29.215Z,66.90
2023-04-21T19:05:57.556Z,66.90
2023-04-21T19:08:40.853Z,67.00
2023-04-21T19:11:12.568Z,67.00
2023-04-21T19:13:42.261Z,67.00
2023-04-21T19:16:12.692Z,67.00
2023-04-21T19:18:41.711Z,67.10
2023-04-21T19:21:13.459Z,67.00
2023-04-21T19:23:42.083Z,67.10
2023-04-21T19:26:11.943Z,67.10
2023-04-21T19:28:42.307Z,67.10
2023-04-21T19:31:11.077Z,67.10
2023-04-21T19:33:39.318Z,67.10
2023-04-21T19:36:09.411Z,67.10
2023-04-21T19:38:37.763Z,67.10
2023-04-21T19:41:06.005Z,67.10
2023-04-21T19:43:34.219Z,67.20
2023-04-21T19:46:04.063Z,67.20
2023-04-21T19:48:32.791Z,67.20
2023-04-21T19:51:00.958Z,67.20
2023-04-21T19:53:29.369Z,67.20
2023-04-21T19:55:57.977Z,67.20
2023-04-21T19:58:39.540Z,67.20
2023-04-21T20:01:10.197Z,67.20
2023-04-21T20:03:38.591Z,67.30
2023-04-21T20:06:07.470Z,67.20
2023-04-21T20:08:36.421Z,67.30
2023-04-21T20:11:04.648Z,67.30
2023-04-21T20:13:33.034Z,67.40
2023-04-21T20:16:01.413Z,67.40
2023-04-21T20:18:31.929Z,67.40
2023-04-21T20:21:00.198Z,67.40
2023-04-21T20:23:29.139Z,67.40
2023-04-21T20:25:57.453Z,67.50
2023-04-21T20:28:27.544Z,67.50
2023-04-21T20:30:56.999Z,67.50
2023-04-21T20:33:25.691Z,67.50
2023-04-21T20:35:55.578Z,67.50
2023-04-21T20:38:24.771Z,67.50
2023-04-21T20:40:53.857Z,67.60
2023-04-21T20:43:22.154Z,67.70
2023-04-21T20:45:50.723Z,67.70
2023-04-21T20:48:18.949Z,67.70
2023-04-21T20:50:49.832Z,67.70
2023-04-21T20:53:21.085Z,67.70
2023-04-21T20:55:49.494Z,67.80
2023-04-21T20:58:17.732Z,67.80
2023-04-21T21:00:45.921Z,67.80
2023-04-21T21:03:14.268Z,67.80
2023-04-21T21:05:42.685Z,67.90
2023-04-21T21:08:10.855Z,67.90
2023-04-21T21:10:40.435Z,67.90
2023-04-21T21:13:08.585Z,68.00
2023-04-21T21:15:36.789Z,68.00
2023-04-21T21:18:05.230Z,68.00
2023-04-21T21:20:33.456Z,68.00
2023-04-21T21:23:01.678Z,68.00
2023-04-21T21:25:30.201Z,68.10
2023-04-21T21:27:59.704Z,68.00
2023-04-21T21:30:27.959Z,68.10
2023-04-21T21:32:56.199Z,68.70
2023-04-21T21:35:24.486Z,68.10
2023-04-21T21:37:52.727Z,68.10
2023-04-21T21:40:21.478Z,68.10
2023-04-21T21:42:49.600Z,68.10
2023-04-21T21:45:19.318Z,68.10
2023-04-21T21:47:47.403Z,68.20
2023-04-21T21:50:15.545Z,68.20
2023-04-21T21:52:43.810Z,68.20
2023-04-21T21:55:11.961Z,68.30
2023-04-21T21:57:40.298Z,68.30
2023-04-21T22:00:13.880Z,68.30
2023-04-21T22:02:43.951Z,68.30
2023-04-21T22:05:13.774Z,68.30
2023-04-21T22:07:43.161Z,68.30
2023-04-21T22:10:12.172Z,68.30
2023-04-21T22:12:40.730Z,68.40
2023-04-21T22:15:09.991Z,68.40
2023-04-21T22:17:38.296Z,68.40
2023-04-21T22:20:09.212Z,68.40
2023-04-21T22:22:37.550Z,68.50
2023-04-21T22:25:06.268Z,68.50
2023-04-21T22:27:34.503Z,68.50
2023-04-21T22:30:03.521Z,68.50
2023-04-21T22:32:32.474Z,68.60
2023-04-21T22:35:01.411Z,68.60
2023-04-21T22:37:31.042Z,68.60
2023-04-21T22:39:59.752Z,68.60
2023-04-21T22:42:27.935Z,68.70
2023-04-21T22:44:56.231Z,68.60
2023-04-21T22:47:24.564Z,68.70
2023-04-21T22:49:53.465Z,68.70
2023-04-21T22:52:21.916Z,68.80
2023-04-21T22:54:51.392Z,68.80
2023-04-21T22:57:19.771Z,68.80
2023-04-21T22:59:47.952Z,68.90
2023-04-21T23:02:16.294Z,68.90
2023-04-21T23:04:44.475Z,68.90
2023-04-21T23:07:12.605Z,68.90
2023-04-21T23:09:40.993Z,68.90
2023-04-21T23:12:10.845Z,68.90
2023-04-21T23:14:39.013Z,69.00
2023-04-21T23:17:07.174Z,68.90
2023-04-21T23:19:35.463Z,69.00
2023-04-21T23:22:03.722Z,69.10
2023-04-21T23:24:31.854Z,69.10
2023-04-21T23:27:00.129Z,69.10
2023-04-21T23:29:29.850Z,69.10
2023-04-21T23:31:58.052Z,69.10
2023-04-21T23:34:26.303Z,69.10
2023-04-21T23:36:54.497Z,69.20
2023-04-21T23:39:22.682Z,69.20
2023-04-21T23:41:50.917Z,69.20
2023-04-21T23:44:19.109Z,69.20
2023-04-21T23:46:48.656Z,69.20
2023-04-21T23:49:16.753Z,69.20
2023-04-21T23:51:45.067Z,69.30
2023-04-21T23:54:13.234Z,69.30
2023-04-21T23:56:41.376Z,69.30
2023-04-21T23:59:09.551Z,69.30
